Time,TemperatureF,DewpointF,PressureIn,WindDirection,WindDirectionDegrees,WindSpeedMPH,WindSpeedGustMPH,Humidity,HourlyPrecipIn,Conditions,Clouds,dailyrainin,SoftwareType,DateUTC
2013-01-11 00:03:00,32.0,30.7,30.10,WNW,297,0.0,0.0,95,0.01,RA,,0.00,WeatherDisplay:10.37,2013-01-11 08:03:00,
2013-01-11 00:08:00,32.0,30.7,30.11,WNW,297,0.0,0.0,95,0.01,RA,,0.00,WeatherDisplay:10.37,2013-01-11 08:08:00,
2013-01-11 00:13:00,32.0,30.7,30.11,WNW,297,2.3,2.3,95,0.01,OVC,,0.00,WeatherDisplay:10.37,2013-01-11 08:13:00,
2013-01-11 00:18:00,32.1,30.8,30.11,WNW,297,3.5,3.5,95,0.01,OVC,,0.00,WeatherDisplay:10.37,2013-01-11 08:18:00,
2013-01-11 00:23:00,32.2,30.9,30.11,NW,306,3.5,3.5,95,0.01,OVC,,0.00,WeatherDisplay:10.37,2013-01-11 08:23:00,
2013-01-11 00:28:00,32.3,31.0,30.11,NW,306,0.0,0.0,95,0.01,OVC,,0.00,WeatherDisplay:10.37,2013-01-11 08:28:00,
2013-01-11 00:33:00,32.3,31.0,30.11,NW,306,0.0,0.0,95,0.01,OVC,,0.00,WeatherDisplay:10.37,2013-01-11 08:33:00,
2013-01-11 00:38:00,32.3,31.0,30.11,NW,306,0.0,0.0,95,0.00,OVC,,0.00,WeatherDisplay:10.37,2013-01-11 08:38:00,
2013-01-11 00:43:00,32.2,30.9,30.11,NW,306,2.3,2.3,95,0.00,OVC,,0.00,WeatherDisplay:10.37,2013-01-11 08:43:00,
2013-01-11 00:48:00,32.1,30.8,30.11,NW,306,1.1,1.1,95,0.00,OVC,,0.00,WeatherDisplay:10.37,2013-01-11 08:48:00,
2013-01-11 00:53:00,32.1,30.8,30.11,NW,306,1.1,0.0,95,0.00,OVC,,0.00,WeatherDisplay:10.37,2013-01-11 08:53:00,
2013-01-11 00:58:00,32.0,30.7,30.11,NW,306,0.0,0.0,95,0.00,OVC,,0.00,WeatherDisplay:10.37,2013-01-11 08:58:00,
2013-01-11 01:03:00,31.8,30.5,30.11,NW,306,1.1,1.1,95,0.00,OVC,,0.00,WeatherDisplay:10.37,2013-01-11 09:03:00,
2013-01-11 01:08:00,31.7,30.4,30.11,NW,306,0.0,0.0,95,0.00,OVC,,0.00,WeatherDisplay:10.37,2013-01-11 09:08:00,
2013-01-11 01:13:00,31.6,30.3,30.11,NW,306,0.0,0.0,95,0.00,OVC,,0.00,WeatherDisplay:10.37,2013-01-11 09:13:00,
2013-01-11 01:18:00,31.5,30.2,30.11,NW,306,0.0,0.0,95,0.00,OVC,,0.00,WeatherDisplay:10.37,2013-01-11 09:18:00,
2013-01-11 01:23:00,31.4,30.1,30.11,NW,306,0.0,0.0,95,0.00,OVC,,0.00,WeatherDisplay:10.37,2013-01-11 09:23:00,
2013-01-11 01:28:00,31.3,30.0,30.11,NW,306,0.0,0.0,95,0.00,OVC,,0.00,WeatherDisplay:10.37,2013-01-11 09:28:00,
2013-01-11 01:33:00,31.2,29.9,30.11,NW,306,0.0,0.0,95,0.00,OVC,,0.00,WeatherDisplay:10.37,2013-01-11 09:33:00,
2013-01-11 01:38:00,31.2,29.9,30.11,NW,306,1.1,1.1,95,0.00,OVC,,0.00,WeatherDisplay:10.37,2013-01-11 09:38:00,
2013-01-11 01:43:00,31.1,29.8,30.11,NW,307,0.0,0.0,95,0.00,OVC,,0.00,WeatherDisplay:10.37,2013-01-11 09:43:00,
2013-01-11 01:48:00,31.1,29.8,30.12,NW,306,0.0,0.0,95,0.00,OVC,,0.00,WeatherDisplay:10.37,2013-01-11 09:48:00,
2013-01-11 01:53:00,31.1,29.8,30.12,NW,306,0.0,0.0,95,0.00,OVC,,0.00,WeatherDisplay:10.37,2013-01-11 09:53:00,
2013-01-11 01:58:00,31.0,29.7,30.12,NW,306,0.0,0.0,95,0.00,OVC,,0.00,WeatherDisplay:10.37,2013-01-11 09:58:00,
2013-01-11 02:03:00,31.0,29.7,30.12,NW,306,0.0,0.0,95,0.00,OVC,,0.00,WeatherDisplay:10.37,2013-01-11 10:03:00,
2013-01-11 02:08:00,31.0,29.7,30.13,NW,306,0.0,0.0,95,0.00,OVC,,0.00,WeatherDisplay:10.37,2013-01-11 10:08:00,
2013-01-11 02:13:00,31.0,29.7,30.13,NW,306,0.0,0.0,95,0.00,OVC,,0.00,WeatherDisplay:10.37,2013-01-11 10:13:00,
2013-01-11 02:18:00,31.1,29.8,30.13,NW,306,1.1,0.0,95,0.00,OVC,,0.00,WeatherDisplay:10.37,2013-01-11 10:18:00,
2013-01-11 02:23:00,31.1,29.8,30.13,NW,306,0.0,0.0,95,0.00,OVC,,0.00,WeatherDisplay:10.37,2013-01-11 10:23:00,
2013-01-11 02:28:00,31.1,29.8,30.13,NW,306,0.0,0.0,95,0.00,OVC,,0.00,WeatherDisplay:10.37,2013-01-11 10:28:00,
2013-01-11 02:33:00,31.1,29.8,30.13,NW,306,0.0,0.0,95,0.00,OVC,,0.00,WeatherDisplay:10.37,2013-01-11 10:33:00,
2013-01-11 02:38:00,31.0,29.7,30.13,NW,306,4.0,4.0,95,0.00,OVC,,0.00,WeatherDisplay:10.37,2013-01-11 10:38:00,
2013-01-11 02:43:00,31.1,29.8,30.13,NW,306,3.5,3.5,95,0.00,OVC,,0.00,WeatherDisplay:10.37,2013-01-11 10:43:00,
2013-01-11 02:48:00,31.1,29.8,30.13,NW,306,0.0,0.0,95,0.00,OVC,,0.00,WeatherDisplay:10.37,2013-01-11 10:48:00,
2013-01-11 02:53:00,31.1,29.8,30.13,NW,306,1.1,1.1,95,0.00,OVC,,0.00,WeatherDisplay:10.37,2013-01-11 10:53:00,
2013-01-11 02:58:00,31.1,29.8,30.13,NW,306,1.1,0.0,95,0.00,OVC,,0.00,WeatherDisplay:10.37,2013-01-11 10:58:00,
2013-01-11 03:03:00,31.2,29.9,30.13,NW,306,2.3,2.3,95,0.00,OVC,,0.00,WeatherDisplay:10.37,2013-01-11 11:03:00,
2013-01-11 03:08:00,31.2,29.9,30.13,NW,306,0.0,0.0,95,0.00,OVC,,0.00,WeatherDisplay:10.37,2013-01-11 11:08:00,
2013-01-11 03:13:00,31.2,29.9,30.13,NW,306,0.0,0.0,95,0.00,OVC,,0.00,WeatherDisplay:10.37,2013-01-11 11:13:00,
2013-01-11 03:18:00,31.2,29.9,30.13,NW,306,0.0,0.0,95,0.00,OVC,,0.00,WeatherDisplay:10.37,2013-01-11 11:18:00,
2013-01-11 03:23:00,31.1,29.8,30.13,NW,306,0.0,0.0,95,0.00,OVC,,0.00,WeatherDisplay:10.37,2013-01-11 11:23:00,
2013-01-11 03:28:00,31.0,29.7,30.13,NW,306,1.1,0.0,95,0.00,OVC,,0.00,WeatherDisplay:10.37,2013-01-11 11:28:00,
2013-01-11 03:33:00,30.9,29.6,30.14,NW,306,0.0,0.0,95,0.00,OVC,,0.00,WeatherDisplay:10.37,2013-01-11 11:33:00,
2013-01-11 03:38:00,30.8,29.5,30.13,NW,306,0.0,0.0,95,0.00,OVC,,0.00,WeatherDisplay:10.37,2013-01-11 11:38:00,
2013-01-11 03:43:00,30.8,29.5,30.14,NW,306,0.0,0.0,95,0.00,OVC,,0.00,WeatherDisplay:10.37,2013-01-11 11:43:00,
2013-01-11 03:48:00,30.7,29.4,30.14,NW,306,0.0,0.0,95,0.00,OVC,,0.00,WeatherDisplay:10.37,2013-01-11 11:48:00,
2013-01-11 03:53:00,30.7,29.4,30.14,NW,306,0.0,0.0,95,0.00,OVC,,0.00,WeatherDisplay:10.37,2013-01-11 11:53:00,
2013-01-11 03:58:00,30.7,29.4,30.14,NW,306,0.0,0.0,95,0.00,OVC,,0.00,WeatherDisplay:10.37,2013-01-11 11:58:00,
2013-01-11 04:03:00,30.6,29.3,30.14,NW,306,0.0,0.0,95,0.00,OVC,,0.00,WeatherDisplay:10.37,2013-01-11 12:03:00,
2013-01-11 04:08:00,30.6,29.3,30.14,NW,306,0.0,0.0,95,0.00,OVC,,0.00,WeatherDisplay:10.37,2013-01-11 12:08:00,
2013-01-11 04:13:00,30.6,29.3,30.14,NW,306,0.0,0.0,95,0.00,OVC,,0.00,WeatherDisplay:10.37,2013-01-11 12:13:00,
2013-01-11 04:18:00,30.5,29.2,30.14,NW,306,0.0,0.0,95,0.00,OVC,,0.00,WeatherDisplay:10.37,2013-01-11 12:18:00,
2013-01-11 04:23:00,30.5,29.2,30.14,NW,306,0.0,0.0,95,0.00,OVC,,0.00,WeatherDisplay:10.37,2013-01-11 12:23:00,
2013-01-11 04:28:00,30.4,29.1,30.14,NW,306,1.1,1.1,95,0.00,OVC,,0.00,WeatherDisplay:10.37,2013-01-11 12:28:00,
2013-01-11 04:33:00,30.3,29.0,30.14,NW,306,1.1,1.1,95,0.00,OVC,,0.00,WeatherDisplay:10.37,2013-01-11 12:33:00,
2013-01-11 04:38:00,30.3,29.0,30.14,NW,306,0.0,0.1,95,0.00,OVC,,0.00,WeatherDisplay:10.37,2013-01-11 12:38:00,
2013-01-11 04:43:00,30.3,29.0,30.14,NW,306,1.1,1.1,95,0.00,OVC,,0.00,WeatherDisplay:10.37,2013-01-11 12:43:00,
2013-01-11 04:48:00,30.3,29.0,30.14,NW,306,0.0,0.0,95,0.00,OVC,,0.00,WeatherDisplay:10.37,2013-01-11 12:48:00,
2013-01-11 04:53:00,30.3,29.0,30.14,NW,306,0.0,0.0,95,0.00,OVC,,0.00,WeatherDisplay:10.37,2013-01-11 12:53:00,
2013-01-11 04:58:00,30.3,29.0,30.14,NW,306,0.0,0.0,95,0.00,OVC,,0.00,WeatherDisplay:10.37,2013-01-11 12:58:00,
2013-01-11 05:03:00,30.2,28.9,30.14,NW,306,0.0,0.0,95,0.00,OVC,,0.00,WeatherDisplay:10.37,2013-01-11 13:03:00,
2013-01-11 05:08:00,30.1,28.8,30.14,NW,306,0.0,0.0,95,0.00,OVC,,0.00,WeatherDisplay:10.37,2013-01-11 13:08:00,
2013-01-11 05:13:00,30.1,28.8,30.14,NW,306,0.0,0.0,95,0.00,OVC,,0.00,WeatherDisplay:10.37,2013-01-11 13:13:00,
2013-01-11 05:18:00,30.0,28.7,30.14,NW,306,0.0,0.0,95,0.00,OVC,,0.00,WeatherDisplay:10.37,2013-01-11 13:18:00,
2013-01-11 05:23:00,29.9,28.6,30.14,NW,306,0.0,0.0,95,0.00,OVC,,0.00,WeatherDisplay:10.37,2013-01-11 13:23:00,
2013-01-11 05:28:00,29.8,28.5,30.14,NW,306,0.0,0.0,95,0.00,OVC,,0.00,WeatherDisplay:10.37,2013-01-11 13:28:00,
2013-01-11 05:33:00,29.7,28.4,30.14,NW,306,0.0,0.0,95,0.00,OVC,,0.00,WeatherDisplay:10.37,2013-01-11 13:33:00,
2013-01-11 05:38:00,29.7,28.4,30.14,NW,306,0.0,0.0,95,0.00,OVC,,0.00,WeatherDisplay:10.37,2013-01-11 13:38:00,
2013-01-11 05:43:00,29.6,28.1,30.15,NW,306,0.0,0.0,94,0.00,OVC,,0.00,WeatherDisplay:10.37,2013-01-11 13:43:00,
2013-01-11 05:48:00,29.6,28.1,30.15,NW,306,0.0,0.0,94,0.00,OVC,,0.00,WeatherDisplay:10.37,2013-01-11 13:48:00,
2013-01-11 05:53:00,29.5,28.2,30.15,NW,306,0.0,0.0,95,0.00,OVC,,0.00,WeatherDisplay:10.37,2013-01-11 13:53:00,
2013-01-11 05:58:00,29.4,28.1,30.15,NW,306,0.0,0.0,95,0.00,OVC,,0.00,WeatherDisplay:10.37,2013-01-11 13:58:00,
2013-01-11 06:03:00,29.3,28.0,30.16,NW,306,0.0,0.0,95,0.00,OVC,,0.00,WeatherDisplay:10.37,2013-01-11 14:03:00,
2013-01-11 06:08:00,29.2,27.9,30.16,NW,306,0.0,0.0,95,0.00,OVC,,0.00,WeatherDisplay:10.37,2013-01-11 14:08:00,
2013-01-11 06:13:00,29.1,27.8,30.16,NW,306,0.0,0.0,95,0.00,OVC,,0.00,WeatherDisplay:10.37,2013-01-11 14:13:00,
2013-01-11 06:18:00,28.9,27.4,30.16,NW,306,0.0,0.0,94,0.00,OVC,,0.00,WeatherDisplay:10.37,2013-01-11 14:18:00,
2013-01-11 06:23:00,28.8,27.3,30.17,NW,306,0.0,0.0,94,0.00,OVC,,0.00,WeatherDisplay:10.37,2013-01-11 14:23:00,
2013-01-11 06:28:00,28.7,27.2,30.17,NW,306,0.0,0.0,94,0.00,OVC,,0.00,WeatherDisplay:10.37,2013-01-11 14:28:00,
2013-01-11 06:33:00,28.6,27.4,30.17,NW,306,0.0,0.0,95,0.00,OVC,,0.00,WeatherDisplay:10.37,2013-01-11 14:33:00,
2013-01-11 06:38:00,28.6,27.4,30.17,NW,306,0.0,0.0,95,0.00,OVC,,0.00,WeatherDisplay:10.37,2013-01-11 14:38:00,
2013-01-11 06:43:00,28.5,27.3,30.17,NW,306,0.0,0.0,95,0.00,OVC,,0.00,WeatherDisplay:10.37,2013-01-11 14:43:00,
2013-01-11 06:48:00,28.4,27.2,30.18,NW,306,0.0,0.0,95,0.00,OVC,,0.00,WeatherDisplay:10.37,2013-01-11 14:48:00,
2013-01-11 06:53:00,28.3,26.8,30.18,NW,306,0.0,0.0,94,0.00,OVC,,0.00,WeatherDisplay:10.37,2013-01-11 14:53:00,
2013-01-11 06:58:00,28.2,26.7,30.18,NW,306,0.0,0.0,94,0.00,OVC,,0.00,WeatherDisplay:10.37,2013-01-11 14:58:00,
2013-01-11 07:03:00,28.2,26.7,30.18,NW,306,0.0,0.0,94,0.00,OVC,,0.00,WeatherDisplay:10.37,2013-01-11 15:03:00,
2013-01-11 07:08:00,28.1,26.6,30.19,NW,306,0.0,0.0,94,0.00,OVC,,0.00,WeatherDisplay:10.37,2013-01-11 15:08:00,
2013-01-11 07:13:00,28.1,26.6,30.19,NW,306,0.0,0.0,94,0.00,OVC,,0.00,WeatherDisplay:10.37,2013-01-11 15:13:00,
2013-01-11 07:18:00,28.0,26.8,30.19,NW,306,0.0,0.0,95,0.00,OVC,,0.00,WeatherDisplay:10.37,2013-01-11 15:18:00,
2013-01-11 07:23:00,28.0,26.8,30.19,NW,306,0.0,0.0,95,0.00,OVC,,0.00,WeatherDisplay:10.37,2013-01-11 15:23:00,
2013-01-11 07:28:00,28.0,26.8,30.20,NW,306,0.0,0.0,95,0.00,OVC,,0.00,WeatherDisplay:10.37,2013-01-11 15:28:00,
2013-01-11 07:33:00,28.0,26.8,30.20,NW,306,0.0,0.0,95,0.00,OVC,,0.00,WeatherDisplay:10.37,2013-01-11 15:33:00,
2013-01-11 07:38:00,28.0,26.8,30.20,NW,306,0.0,0.0,95,0.00,OVC,,0.00,WeatherDisplay:10.37,2013-01-11 15:38:00,
2013-01-11 07:43:00,27.9,26.7,30.21,NW,306,0.0,0.0,95,0.00,OVC,,0.00,WeatherDisplay:10.37,2013-01-11 15:43:00,
2013-01-11 07:48:00,27.9,26.7,30.21,NW,306,0.0,0.0,95,0.00,OVC,,0.00,WeatherDisplay:10.37,2013-01-11 15:48:00,
2013-01-11 07:53:00,27.9,26.7,30.21,NW,306,0.0,0.0,95,0.00,OVC,,0.00,WeatherDisplay:10.37,2013-01-11 15:53:00,
2013-01-11 07:58:00,27.9,26.7,30.22,NW,306,0.0,0.0,95,0.00,OVC,,0.00,WeatherDisplay:10.37,2013-01-11 15:58:00,
2013-01-11 08:03:00,27.8,26.6,30.22,NW,306,0.0,0.0,95,0.00,OVC,,0.00,WeatherDisplay:10.37,2013-01-11 16:03:00,
2013-01-11 08:08:00,27.8,26.6,30.22,NW,306,0.0,0.0,95,0.00,OVC,,0.00,WeatherDisplay:10.37,2013-01-11 16:08:00,
2013-01-11 08:13:00,27.8,26.6,30.22,NW,306,0.0,0.0,95,0.00,OVC,,0.00,WeatherDisplay:10.37,2013-01-11 16:13:00,
2013-01-11 08:18:00,27.8,26.6,30.23,NW,306,0.0,0.0,95,0.00,OVC,,0.00,WeatherDisplay:10.37,2013-01-11 16:18:00,
2013-01-11 08:23:00,27.9,26.7,30.23,NW,306,0.0,0.0,95,0.00,OVC,,0.00,WeatherDisplay:10.37,2013-01-11 16:23:00,
2013-01-11 08:28:00,27.9,26.7,30.23,NW,306,0.0,0.0,95,0.00,OVC,,0.00,WeatherDisplay:10.37,2013-01-11 16:28:00,
2013-01-11 08:33:00,28.0,26.8,30.23,NW,306,0.0,0.0,95,0.00,OVC,,0.00,WeatherDisplay:10.37,2013-01-11 16:33:00,
2013-01-11 08:38:00,28.1,26.6,30.24,NW,306,0.0,0.0,94,0.00,OVC,,0.00,WeatherDisplay:10.37,2013-01-11 16:38:00,
2013-01-11 08:43:00,28.3,26.8,30.24,NW,306,0.0,0.0,94,0.00,OVC,,0.00,WeatherDisplay:10.37,2013-01-11 16:43:00,
2013-01-11 08:48:00,28.4,27.2,30.24,NW,306,0.0,0.0,95,0.00,OVC,,0.00,WeatherDisplay:10.37,2013-01-11 16:48:00,
2013-01-11 08:53:00,28.5,27.3,30.24,NW,306,0.0,0.0,95,0.00,OVC,,0.00,WeatherDisplay:10.37,2013-01-11 16:53:00,
2013-01-11 08:58:00,28.7,27.4,30.24,NW,306,0.0,0.0,95,0.00,OVC,,0.00,WeatherDisplay:10.37,2013-01-11 16:58:00,
2013-01-11 09:03:00,28.8,27.5,30.24,NW,306,1.1,0.0,95,0.00,OVC,,0.00,WeatherDisplay:10.37,2013-01-11 17:03:00,
2013-01-11 09:08:00,28.8,27.3,30.25,NW,306,0.0,0.0,94,0.00,OVC,,0.00,WeatherDisplay:10.37,2013-01-11 17:08:00,
2013-01-11 09:13:00,29.0,27.5,30.25,NW,306,1.1,1.1,94,0.00,OVC,,0.00,WeatherDisplay:10.37,2013-01-11 17:13:00,
2013-01-11 09:18:00,29.1,27.8,30.25,NW,306,3.5,3.5,95,0.00,OVC,,0.00,WeatherDisplay:10.37,2013-01-11 17:18:00,
2013-01-11 09:23:00,29.2,27.9,30.25,NW,306,3.5,3.5,95,0.00,OVC,,0.00,WeatherDisplay:10.37,2013-01-11 17:23:00,
2013-01-11 09:28:00,29.3,28.0,30.25,NW,307,3.5,3.5,95,0.00,OVC,,0.00,WeatherDisplay:10.37,2013-01-11 17:28:00,
2013-01-11 09:33:00,29.4,28.1,30.26,NW,306,3.5,3.5,95,0.00,OVC,,0.00,WeatherDisplay:10.37,2013-01-11 17:33:00,
2013-01-11 09:38:00,29.6,28.3,30.26,NW,306,3.5,3.5,95,0.00,OVC,,0.00,WeatherDisplay:10.37,2013-01-11 17:38:00,
2013-01-11 09:43:00,29.7,28.4,30.26,NW,307,5.8,5.8,95,0.00,OVC,,0.00,WeatherDisplay:10.37,2013-01-11 17:43:00,
2013-01-11 09:48:00,29.8,28.5,30.25,NW,306,3.5,3.5,95,0.00,OVC,,0.00,WeatherDisplay:10.37,2013-01-11 17:48:00,
2013-01-11 09:53:00,29.8,28.5,30.25,NW,306,6.9,6.9,95,0.00,OVC,,0.00,WeatherDisplay:10.37,2013-01-11 17:53:00,
2013-01-11 09:58:00,29.8,28.5,30.25,NW,306,8.1,8.1,95,0.00,OVC,,0.00,WeatherDisplay:10.37,2013-01-11 17:58:00,
2013-01-11 10:03:00,29.8,28.5,30.25,NW,306,5.8,5.8,95,0.00,OVC,,0.00,WeatherDisplay:10.37,2013-01-11 18:03:00,
2013-01-11 10:08:00,29.9,28.6,30.26,NW,306,1.1,0.0,95,0.00,OVC,,0.00,WeatherDisplay:10.37,2013-01-11 18:08:00,
2013-01-11 10:13:00,30.0,28.7,30.26,NW,306,0.0,0.0,95,0.00,OVC,,0.00,WeatherDisplay:10.37,2013-01-11 18:13:00,
2013-01-11 10:18:00,30.0,28.7,30.26,NW,306,2.3,2.3,95,0.00,OVC,,0.00,WeatherDisplay:10.37,2013-01-11 18:18:00,
2013-01-11 10:23:00,30.0,28.7,30.26,NW,306,2.3,2.3,95,0.00,OVC,,0.00,WeatherDisplay:10.37,2013-01-11 18:23:00,
2013-01-11 10:28:00,29.9,28.6,30.27,NW,306,2.0,2.0,95,0.00,OVC,,0.00,WeatherDisplay:10.37,2013-01-11 18:28:00,
2013-01-11 10:33:00,30.0,28.7,30.27,NW,306,2.3,2.3,95,0.00,OVC,,0.00,WeatherDisplay:10.37,2013-01-11 18:33:00,
2013-01-11 10:38:00,30.1,28.8,30.27,NW,306,1.1,0.0,95,0.00,OVC,,0.00,WeatherDisplay:10.37,2013-01-11 18:38:00,
2013-01-11 10:43:00,30.4,29.1,30.27,NW,306,2.3,2.3,95,0.00,OVC,,0.00,WeatherDisplay:10.37,2013-01-11 18:43:00,
2013-01-11 10:48:00,30.6,29.3,30.26,NW,306,3.5,3.5,95,0.00,OVC,,0.00,WeatherDisplay:10.37,2013-01-11 18:48:00,
2013-01-11 10:53:00,30.5,29.2,30.27,NW,306,5.8,5.8,95,0.00,OVC,,0.00,WeatherDisplay:10.37,2013-01-11 18:53:00,
2013-01-11 10:58:00,30.5,29.2,30.27,NW,306,6.9,6.9,95,0.00,OVC,,0.00,WeatherDisplay:10.37,2013-01-11 18:58:00,
2013-01-11 11:03:00,30.6,29.3,30.27,NW,306,6.9,6.9,95,0.00,OVC,,0.00,WeatherDisplay:10.37,2013-01-11 19:03:00,
2013-01-11 11:08:00,30.9,29.6,30.27,NW,306,5.0,5.0,95,0.00,OVC,,0.00,WeatherDisplay:10.37,2013-01-11 19:08:00,
2013-01-11 11:13:00,31.0,29.7,30.27,NW,306,9.2,9.2,95,0.00,OVC,,0.00,WeatherDisplay:10.37,2013-01-11 19:13:00,
2013-01-11 11:18:00,31.2,29.9,30.27,NW,306,4.0,4.0,95,0.00,OVC,,0.00,WeatherDisplay:10.37,2013-01-11 19:18:00,
2013-01-11 11:23:00,31.3,30.0,30.27,NW,306,6.9,6.9,95,0.00,OVC,,0.00,WeatherDisplay:10.37,2013-01-11 19:23:00,
2013-01-11 11:28:00,31.5,30.2,30.27,NW,306,6.9,6.9,95,0.00,OVC,,0.00,WeatherDisplay:10.37,2013-01-11 19:28:00,
2013-01-11 11:33:00,31.7,30.4,30.26,NW,306,8.1,8.1,95,0.00,OVC,,0.00,WeatherDisplay:10.37,2013-01-11 19:33:00,
2013-01-11 11:38:00,31.8,30.5,30.26,NW,306,5.8,5.8,95,0.00,OVC,,0.00,WeatherDisplay:10.37,2013-01-11 19:38:00,
2013-01-11 11:43:00,32.0,30.7,30.26,NW,306,4.6,4.6,95,0.00,OVC,,0.00,WeatherDisplay:10.37,2013-01-11 19:43:00,
2013-01-11 11:48:00,32.5,31.2,30.27,NW,306,5.0,5.0,95,0.00,OVC,,0.00,WeatherDisplay:10.37,2013-01-11 19:48:00,
2013-01-11 11:53:00,32.7,31.4,30.27,NW,304,4.6,4.6,95,0.00,OVC,,0.00,WeatherDisplay:10.37,2013-01-11 19:53:00,
2013-01-11 11:58:00,33.0,31.7,30.26,NW,304,4.6,4.6,95,0.00,OVC,,0.00,WeatherDisplay:10.37,2013-01-11 19:58:00,
2013-01-11 12:03:00,33.3,32.0,30.26,WNW,302,8.1,8.1,95,0.00,OVC,,0.00,WeatherDisplay:10.37,2013-01-11 20:03:00,
2013-01-11 12:08:00,33.3,32.0,30.27,WNW,301,4.6,4.6,95,0.00,OVC,,0.00,WeatherDisplay:10.37,2013-01-11 20:08:00,
2013-01-11 12:13:00,33.4,32.1,30.27,NW,304,8.1,8.1,95,0.00,OVC,,0.00,WeatherDisplay:10.37,2013-01-11 20:13:00,
2013-01-11 12:18:00,33.5,32.2,30.27,WNW,292,9.2,9.2,95,0.00,OVC,,0.00,WeatherDisplay:10.37,2013-01-11 20:18:00,
2013-01-11 12:23:00,33.7,32.4,30.26,NW,311,5.8,5.8,95,0.00,OVC,,0.00,WeatherDisplay:10.37,2013-01-11 20:23:00,
2013-01-11 12:28:00,34.2,32.9,30.26,NW,304,3.5,3.5,95,0.00,OVC,,0.00,WeatherDisplay:10.37,2013-01-11 20:28:00,
2013-01-11 12:33:00,34.4,32.9,30.26,NW,304,3.5,3.5,94,0.00,OVC,,0.00,WeatherDisplay:10.37,2013-01-11 20:33:00,
2013-01-11 12:38:00,34.4,32.9,30.26,WNW,294,3.5,3.5,94,0.00,OVC,,0.00,WeatherDisplay:10.37,2013-01-11 20:38:00,
2013-01-11 12:43:00,34.8,33.2,30.26,WNW,288,2.3,2.3,94,0.00,OVC,,0.00,WeatherDisplay:10.37,2013-01-11 20:43:00,
2013-01-11 12:48:00,35.3,33.2,30.26,WNW,298,4.6,4.6,92,0.00,OVC,,0.00,WeatherDisplay:10.37,2013-01-11 20:48:00,
2013-01-11 12:53:00,35.5,32.6,30.26,NW,312,5.8,5.8,89,0.00,OVC,,0.00,WeatherDisplay:10.37,2013-01-11 20:53:00,
2013-01-11 12:58:00,35.7,32.5,30.26,NW,309,3.5,3.5,88,0.00,OVC,,0.00,WeatherDisplay:10.37,2013-01-11 20:58:00,
2013-01-11 13:03:00,35.9,32.4,30.26,WNW,283,3.5,3.5,87,0.00,OVC,,0.00,WeatherDisplay:10.37,2013-01-11 21:03:00,
2013-01-11 13:08:00,36.1,32.3,30.26,NW,304,4.6,4.6,86,0.00,OVC,,0.00,WeatherDisplay:10.37,2013-01-11 21:08:00,
2013-01-11 13:13:00,36.4,32.6,30.27,WNW,299,2.3,2.3,86,0.00,OVC,,0.00,WeatherDisplay:10.37,2013-01-11 21:13:00,
2013-01-11 13:18:00,36.5,32.4,30.27,WNW,303,4.0,4.0,85,0.00,OVC,,0.00,WeatherDisplay:10.37,2013-01-11 21:18:00,
2013-01-11 13:23:00,36.8,32.4,30.27,WNW,301,3.5,3.5,84,0.00,OVC,,0.00,WeatherDisplay:10.37,2013-01-11 21:23:00,
2013-01-11 13:28:00,36.9,32.2,30.27,WNW,298,3.5,3.5,83,0.00,OVC,,0.00,WeatherDisplay:10.37,2013-01-11 21:28:00,
2013-01-11 13:33:00,37.2,32.8,30.27,WNW,295,3.5,3.5,84,0.00,OVC,,0.00,WeatherDisplay:10.37,2013-01-11 21:33:00,
2013-01-11 13:38:00,37.3,32.0,30.27,NNW,327,3.5,3.5,81,0.00,OVC,,0.00,WeatherDisplay:10.37,2013-01-11 21:38:00,
2013-01-11 13:43:00,37.5,31.9,30.27,NNW,334,2.3,2.3,80,0.00,OVC,,0.00,WeatherDisplay:10.37,2013-01-11 21:43:00,
2013-01-11 13:48:00,37.5,30.3,30.27,ESE,113,3.5,3.5,75,0.00,OVC,,0.00,WeatherDisplay:10.37,2013-01-11 21:48:00,
2013-01-11 13:53:00,37.5,29.3,30.28,ENE,78,3.5,3.5,72,0.00,OVC,,0.00,WeatherDisplay:10.37,2013-01-11 21:53:00,
2013-01-11 13:58:00,37.6,29.7,30.28,East,90,4.6,4.6,73,0.00,OVC,,0.00,WeatherDisplay:10.37,2013-01-11 21:58:00,
2013-01-11 14:03:00,37.7,29.8,30.28,NE,55,2.3,2.3,73,0.00,OVC,,0.00,WeatherDisplay:10.37,2013-01-11 22:03:00,
2013-01-11 14:08:00,37.9,30.0,30.28,ENE,70,2.3,2.3,73,0.00,OVC,,0.00,WeatherDisplay:10.37,2013-01-11 22:08:00,
2013-01-11 14:13:00,37.8,29.6,30.28,ENE,70,1.1,1.1,72,0.00,OVC,,0.00,WeatherDisplay:10.37,2013-01-11 22:13:00,
2013-01-11 14:18:00,37.6,30.1,30.28,ENE,70,1.1,1.1,74,0.00,OVC,,0.00,WeatherDisplay:10.37,2013-01-11 22:18:00,
2013-01-11 14:23:00,37.3,29.4,30.28,ENE,70,0.0,0.0,73,0.00,OVC,,0.00,WeatherDisplay:10.37,2013-01-11 22:23:00,
2013-01-11 14:28:00,37.0,29.8,30.28,ENE,70,0.0,0.0,75,0.00,OVC,,0.00,WeatherDisplay:10.37,2013-01-11 22:28:00,
2013-01-11 14:33:00,36.9,30.4,30.28,ENE,70,0.0,0.0,77,0.00,OVC,,0.00,WeatherDisplay:10.37,2013-01-11 22:33:00,
2013-01-11 14:38:00,36.6,29.7,30.28,ENE,70,0.0,0.0,76,0.00,OVC,,0.00,WeatherDisplay:10.37,2013-01-11 22:38:00,
2013-01-11 14:43:00,36.3,29.8,30.28,ENE,70,0.0,0.0,77,0.00,OVC,,0.00,WeatherDisplay:10.37,2013-01-11 22:43:00,
2013-01-11 14:48:00,36.1,28.9,30.28,ENE,73,0.0,0.0,75,0.00,OVC,,0.00,WeatherDisplay:10.37,2013-01-11 22:48:00,
2013-01-11 14:53:00,35.9,29.4,30.28,NE,47,2.3,2.3,77,0.00,OVC,,0.00,WeatherDisplay:10.37,2013-01-11 22:53:00,
2013-01-11 14:58:00,35.9,29.1,30.28,SE,124,2.3,0.0,76,0.00,OVC,,0.00,WeatherDisplay:10.37,2013-01-11 22:58:00,
2013-01-11 15:03:00,36.1,29.6,30.28,ESE,110,3.5,3.5,77,0.00,OVC,,0.00,WeatherDisplay:10.37,2013-01-11 23:03:00,
2013-01-11 15:08:00,36.2,29.4,30.28,ESE,109,1.1,1.1,76,0.00,OVC,,0.00,WeatherDisplay:10.37,2013-01-11 23:08:00,
2013-01-11 15:13:00,36.2,29.4,30.28,ENE,74,3.0,3.0,76,0.00,OVC,,0.00,WeatherDisplay:10.37,2013-01-11 23:13:00,
2013-01-11 15:18:00,36.2,28.7,30.29,ENE,60,3.5,3.5,74,0.00,OVC,,0.00,WeatherDisplay:10.37,2013-01-11 23:18:00,
2013-01-11 15:23:00,36.2,29.4,30.29,East,80,3.5,3.5,76,0.00,OVC,,0.00,WeatherDisplay:10.37,2013-01-11 23:23:00,
2013-01-11 15:28:00,36.2,28.7,30.29,ENE,67,3.5,3.5,74,0.00,OVC,,0.00,WeatherDisplay:10.37,2013-01-11 23:28:00,
2013-01-11 15:33:00,36.2,29.0,30.29,East,91,2.3,2.3,75,0.00,OVC,,0.00,WeatherDisplay:10.37,2013-01-11 23:33:00,
2013-01-11 15:38:00,36.2,28.7,30.29,ENE,67,1.1,1.1,74,0.00,OVC,,0.00,WeatherDisplay:10.37,2013-01-11 23:38:00,
2013-01-11 15:43:00,36.2,29.0,30.29,ENE,60,3.0,3.0,75,0.00,OVC,,0.00,WeatherDisplay:10.37,2013-01-11 23:43:00,
2013-01-11 15:48:00,36.0,27.8,30.29,ESE,106,3.5,3.5,72,0.00,OVC,,0.00,WeatherDisplay:10.37,2013-01-11 23:48:00,
2013-01-11 15:53:00,35.9,28.4,30.28,ESE,105,2.3,2.3,74,0.00,OVC,,0.00,WeatherDisplay:10.37,2013-01-11 23:53:00,
2013-01-11 15:58:00,35.9,29.1,30.29,SSE,154,4.6,4.6,76,0.00,OVC,,0.00,WeatherDisplay:10.37,2013-01-11 23:58:00,
2013-01-11 16:03:00,35.9,29.4,30.29,SSE,153,2.0,2.0,77,0.00,OVC,,0.00,WeatherDisplay:10.37,2013-01-12 00:03:00,
2013-01-11 16:08:00,35.9,29.1,30.29,SSE,153,0.0,0.0,76,0.00,OVC,,0.00,WeatherDisplay:10.37,2013-01-12 00:08:00,
2013-01-11 16:13:00,35.7,29.2,30.29,SSE,153,0.0,0.0,77,0.00,OVC,,0.00,WeatherDisplay:10.37,2013-01-12 00:13:00,
2013-01-11 16:18:00,35.7,29.5,30.29,SSE,153,0.0,0.0,78,0.00,OVC,,0.00,WeatherDisplay:10.37,2013-01-12 00:18:00,
2013-01-11 16:23:00,35.6,29.4,30.29,SSE,153,0.0,0.0,78,0.00,OVC,,0.00,WeatherDisplay:10.37,2013-01-12 00:23:00,
2013-01-11 16:28:00,35.4,29.5,30.30,SSE,153,0.0,0.0,79,0.00,OVC,,0.00,WeatherDisplay:10.37,2013-01-12 00:28:00,
2013-01-11 16:33:00,35.2,29.3,30.30,SSE,153,0.0,0.0,79,0.00,OVC,,0.00,WeatherDisplay:10.37,2013-01-12 00:33:00,
2013-01-11 16:38:00,35.0,29.5,30.30,SSE,153,0.0,0.0,80,0.00,OVC,,0.00,WeatherDisplay:10.37,2013-01-12 00:38:00,
2013-01-11 16:43:00,34.7,29.5,30.30,SSE,153,0.0,0.0,81,0.00,OVC,,0.00,WeatherDisplay:10.37,2013-01-12 00:43:00,
2013-01-11 16:48:00,34.4,29.2,30.30,SSE,153,0.0,0.0,81,0.00,OVC,,0.00,WeatherDisplay:10.37,2013-01-12 00:48:00,
2013-01-11 16:53:00,34.1,28.9,30.30,SSE,153,0.0,0.0,81,0.00,OVC,,0.00,WeatherDisplay:10.37,2013-01-12 00:53:00,
2013-01-11 16:58:00,33.9,29.0,30.30,SSE,153,0.0,0.0,82,0.00,OVC,,0.00,WeatherDisplay:10.37,2013-01-12 00:58:00,
2013-01-11 17:03:00,33.4,28.5,30.30,SSE,153,0.0,0.0,82,0.00,OVC,,0.00,WeatherDisplay:10.37,2013-01-12 01:03:00,
2013-01-11 17:08:00,33.1,28.5,30.30,SSE,153,1.1,0.0,83,0.00,OVC,,0.00,WeatherDisplay:10.37,2013-01-12 01:08:00,
2013-01-11 17:13:00,32.8,28.5,30.30,SSE,153,0.0,0.0,84,0.00,OVC,,0.00,WeatherDisplay:10.37,2013-01-12 01:13:00,
2013-01-11 17:18:00,32.6,28.3,30.30,SSE,153,0.0,0.0,84,0.00,OVC,,0.00,WeatherDisplay:10.37,2013-01-12 01:18:00,
2013-01-11 17:23:00,32.5,28.2,30.30,SSE,153,0.0,0.0,84,0.00,OVC,,0.00,WeatherDisplay:10.37,2013-01-12 01:23:00,
2013-01-11 17:28:00,32.4,27.8,30.30,SSE,153,0.0,0.0,83,0.00,OVC,,0.00,WeatherDisplay:10.37,2013-01-12 01:28:00,
2013-01-11 17:33:00,32.5,27.9,30.30,SSE,153,0.0,0.0,83,0.00,OVC,,0.00,WeatherDisplay:10.37,2013-01-12 01:33:00,
2013-01-11 17:38:00,32.5,27.9,30.30,SSE,153,0.0,0.0,83,0.00,OVC,,0.00,WeatherDisplay:10.37,2013-01-12 01:38:00,
2013-01-11 17:43:00,32.5,27.6,30.30,SSE,153,0.0,0.0,82,0.00,OVC,,0.00,WeatherDisplay:10.37,2013-01-12 01:43:00,
2013-01-11 17:48:00,32.5,27.6,30.30,SSE,153,0.0,0.0,82,0.00,OVC,,0.00,WeatherDisplay:10.37,2013-01-12 01:48:00,
2013-01-11 17:53:00,32.5,27.3,30.31,SSE,153,0.0,0.0,81,0.00,OVC,,0.00,WeatherDisplay:10.37,2013-01-12 01:53:00,
2013-01-11 17:58:00,32.6,27.4,30.31,SSE,153,0.0,0.0,81,0.00,OVC,,0.00,WeatherDisplay:10.37,2013-01-12 01:58:00,
2013-01-11 18:03:00,32.7,27.5,30.30,SSE,153,0.0,0.0,81,0.00,OVC,,0.00,WeatherDisplay:10.37,2013-01-12 02:03:00,
2013-01-11 18:08:00,32.7,27.5,30.30,SSE,153,0.0,0.0,81,0.00,OVC,,0.00,WeatherDisplay:10.37,2013-01-12 02:08:00,
2013-01-11 18:13:00,32.6,27.1,30.31,SSE,153,0.0,0.0,80,0.00,OVC,,0.00,WeatherDisplay:10.37,2013-01-12 02:13:00,
2013-01-11 18:18:00,32.6,27.1,30.31,SSE,153,0.0,0.0,80,0.00,OVC,,0.00,WeatherDisplay:10.37,2013-01-12 02:18:00,
2013-01-11 18:23:00,32.5,27.0,30.31,SSE,153,0.0,0.0,80,0.00,OVC,,0.00,WeatherDisplay:10.37,2013-01-12 02:23:00,
2013-01-11 18:28:00,32.4,26.9,30.31,SSE,153,0.0,0.0,80,0.00,OVC,,0.00,WeatherDisplay:10.37,2013-01-12 02:28:00,
2013-01-11 18:33:00,32.4,26.9,30.31,SSE,153,0.0,0.0,80,0.00,OVC,,0.00,WeatherDisplay:10.37,2013-01-12 02:33:00,
2013-01-11 18:38:00,32.3,26.8,30.31,SSE,153,0.0,0.0,80,0.00,OVC,,0.00,WeatherDisplay:10.37,2013-01-12 02:38:00,
2013-01-11 18:43:00,32.3,27.1,30.30,SSE,153,0.0,0.0,81,0.00,OVC,,0.00,WeatherDisplay:10.37,2013-01-12 02:43:00,
2013-01-11 18:48:00,32.3,27.1,30.31,SSE,153,0.0,0.0,81,0.00,OVC,,0.00,WeatherDisplay:10.37,2013-01-12 02:48:00,
2013-01-11 18:53:00,32.2,27.0,30.31,SSE,153,0.0,0.0,81,0.00,OVC,,0.00,WeatherDisplay:10.37,2013-01-12 02:53:00,
2013-01-11 18:58:00,32.1,27.2,30.31,SSE,153,0.0,0.0,82,0.00,OVC,,0.00,WeatherDisplay:10.37,2013-01-12 02:58:00,
2013-01-11 19:03:00,32.0,27.1,30.31,SSE,153,0.0,0.0,82,0.00,OVC,,0.00,WeatherDisplay:10.37,2013-01-12 03:03:00,
2013-01-11 19:08:00,32.0,27.1,30.31,SSE,153,0.0,0.0,82,0.00,OVC,,0.00,WeatherDisplay:10.37,2013-01-12 03:08:00,
2013-01-11 19:13:00,31.9,27.3,30.31,SSE,153,0.0,0.0,83,0.00,OVC,,0.00,WeatherDisplay:10.37,2013-01-12 03:13:00,
2013-01-11 19:18:00,31.8,27.2,30.31,SSE,153,0.0,0.0,83,0.00,OVC,,0.00,WeatherDisplay:10.37,2013-01-12 03:18:00,
2013-01-11 19:23:00,31.7,27.1,30.31,SSE,153,0.0,0.0,83,0.00,OVC,,0.00,WeatherDisplay:10.37,2013-01-12 03:23:00,
2013-01-11 19:28:00,31.6,27.3,30.31,SSE,153,0.0,0.0,84,0.00,OVC,,0.00,WeatherDisplay:10.37,2013-01-12 03:28:00,
2013-01-11 19:33:00,31.5,27.2,30.31,SSE,153,0.0,0.0,84,0.00,OVC,,0.00,WeatherDisplay:10.37,2013-01-12 03:33:00,
2013-01-11 19:38:00,31.5,27.2,30.30,SSE,153,0.0,0.0,84,0.00,OVC,,0.00,WeatherDisplay:10.37,2013-01-12 03:38:00,
2013-01-11 19:43:00,31.4,27.4,30.31,SSE,153,0.0,0.0,85,0.00,OVC,,0.00,WeatherDisplay:10.37,2013-01-12 03:43:00,
2013-01-11 19:48:00,31.3,27.3,30.31,SSE,153,0.0,0.0,85,0.00,OVC,,0.00,WeatherDisplay:10.37,2013-01-12 03:48:00,
2013-01-11 19:53:00,31.1,27.1,30.30,SSE,153,0.0,0.0,85,0.00,OVC,,0.00,WeatherDisplay:10.37,2013-01-12 03:53:00,
2013-01-11 19:58:00,31.0,27.3,30.31,SSE,153,0.0,0.0,86,0.00,OVC,,0.00,WeatherDisplay:10.37,2013-01-12 03:58:00,
2013-01-11 20:03:00,30.8,27.1,30.30,SSE,153,0.0,0.0,86,0.00,OVC,,0.00,WeatherDisplay:10.37,2013-01-12 04:03:00,
2013-01-11 20:08:00,30.7,27.0,30.30,SSE,153,0.0,0.0,86,0.00,OVC,,0.00,WeatherDisplay:10.37,2013-01-12 04:08:00,
2013-01-11 20:13:00,30.6,27.2,30.30,SSE,153,0.0,0.0,87,0.00,OVC,,0.00,WeatherDisplay:10.37,2013-01-12 04:13:00,
2013-01-11 20:18:00,30.6,27.2,30.30,SSE,153,0.0,0.0,87,0.00,OVC,,0.00,WeatherDisplay:10.37,2013-01-12 04:18:00,
2013-01-11 20:23:00,30.5,27.1,30.30,SSE,153,0.0,0.0,87,0.00,OVC,,0.00,WeatherDisplay:10.37,2013-01-12 04:23:00,
2013-01-11 20:28:00,30.5,27.1,30.29,SSE,153,0.0,0.0,87,0.00,OVC,,0.00,WeatherDisplay:10.37,2013-01-12 04:28:00,
2013-01-11 20:33:00,30.5,27.1,30.29,SSE,153,1.1,1.1,87,0.00,OVC,,0.00,WeatherDisplay:10.37,2013-01-12 04:33:00,
2013-01-11 20:38:00,30.4,27.0,30.30,SSE,153,0.0,0.0,87,0.00,OVC,,0.00,WeatherDisplay:10.37,2013-01-12 04:38:00,
2013-01-11 20:43:00,30.4,27.0,30.30,SSE,153,0.0,0.0,87,0.00,OVC,,0.00,WeatherDisplay:10.37,2013-01-12 04:43:00,
2013-01-11 20:48:00,30.3,26.9,30.30,SSE,153,0.0,0.0,87,0.00,OVC,,0.00,WeatherDisplay:10.37,2013-01-12 04:48:00,
2013-01-11 20:53:00,30.2,26.8,30.31,SSE,153,0.0,0.0,87,0.00,OVC,,0.00,WeatherDisplay:10.37,2013-01-12 04:53:00,
2013-01-11 20:58:00,30.2,26.8,30.31,SSE,153,0.0,0.0,87,0.00,OVC,,0.00,WeatherDisplay:10.37,2013-01-12 04:58:00,
2013-01-11 21:00:00,30.2,26.8,30.31,SSE,153,0.0,0.0,87,0.00,OVC,,0.00,WeatherDisplay:10.37,2013-01-12 05:00:00,
2013-01-11 21:01:00,30.1,27.0,30.31,SSE,153,0.0,0.0,88,0.00,OVC,,0.00,WeatherDisplay:10.37,2013-01-12 05:01:00,
2013-01-11 21:06:00,30.0,26.9,30.31,SSE,153,0.0,0.0,88,0.00,OVC,,0.00,WeatherDisplay:10.37,2013-01-12 05:06:00,
2013-01-11 21:11:00,30.0,26.9,30.32,SSE,153,0.0,0.0,88,0.00,OVC,,0.00,WeatherDisplay:10.37,2013-01-12 05:11:00,
2013-01-11 21:16:00,29.9,26.8,30.31,SSE,153,0.0,0.0,88,0.00,OVC,,0.00,WeatherDisplay:10.37,2013-01-12 05:16:00,
2013-01-11 21:21:00,29.8,27.0,30.31,SSE,153,0.0,0.0,89,0.00,OVC,,0.00,WeatherDisplay:10.37,2013-01-12 05:21:00,
2013-01-11 21:26:00,29.7,26.9,30.31,SSE,153,0.0,0.0,89,0.00,OVC,,0.00,WeatherDisplay:10.37,2013-01-12 05:26:00,
2013-01-11 21:31:00,29.6,26.8,30.31,SSE,153,0.0,0.0,89,0.00,OVC,,0.00,WeatherDisplay:10.37,2013-01-12 05:31:00,
2013-01-11 21:36:00,29.5,26.9,30.31,SSE,153,0.0,0.0,90,0.00,OVC,,0.00,WeatherDisplay:10.37,2013-01-12 05:36:00,
2013-01-11 21:41:00,29.4,26.8,30.31,SSE,153,0.0,0.0,90,0.00,OVC,,0.00,WeatherDisplay:10.37,2013-01-12 05:41:00,
2013-01-11 21:46:00,29.4,26.8,30.31,SSE,153,0.0,0.0,90,0.00,OVC,,0.00,WeatherDisplay:10.37,2013-01-12 05:46:00,
2013-01-11 21:51:00,29.3,26.7,30.31,SSE,153,0.0,0.0,90,0.00,OVC,,0.00,WeatherDisplay:10.37,2013-01-12 05:51:00,
2013-01-11 21:56:00,29.3,26.7,30.31,SSE,153,0.0,0.0,90,0.00,OVC,,0.00,WeatherDisplay:10.37,2013-01-12 05:56:00,
2013-01-11 22:01:00,29.3,26.7,30.30,SSE,153,0.0,0.0,90,0.00,OVC,,0.00,WeatherDisplay:10.37,2013-01-12 06:01:00,
2013-01-11 22:06:00,29.2,26.6,30.30,SSE,153,0.0,0.0,90,0.00,OVC,,0.00,WeatherDisplay:10.37,2013-01-12 06:06:00,
2013-01-11 22:11:00,29.2,26.6,30.30,SSE,153,0.0,0.0,90,0.00,OVC,,0.00,WeatherDisplay:10.37,2013-01-12 06:11:00,
2013-01-11 22:16:00,29.2,26.6,30.30,SSE,153,0.0,0.0,90,0.00,OVC,,0.00,WeatherDisplay:10.37,2013-01-12 06:16:00,
2013-01-11 22:21:00,29.2,26.6,30.30,SSE,153,0.0,0.0,90,0.00,OVC,,0.00,WeatherDisplay:10.37,2013-01-12 06:21:00,
2013-01-11 22:26:00,29.2,26.6,30.30,SSE,153,0.0,0.0,90,0.00,OVC,,0.00,WeatherDisplay:10.37,2013-01-12 06:26:00,
2013-01-11 22:31:00,29.2,26.6,30.30,SSE,153,0.0,0.0,90,0.00,OVC,,0.00,WeatherDisplay:10.37,2013-01-12 06:31:00,
2013-01-11 22:36:00,29.2,26.6,30.30,SSE,153,0.0,0.0,90,0.00,OVC,,0.00,WeatherDisplay:10.37,2013-01-12 06:36:00,
2013-01-11 22:41:00,29.2,26.6,30.30,SSE,153,0.0,0.0,90,0.00,OVC,,0.00,WeatherDisplay:10.37,2013-01-12 06:41:00,
2013-01-11 22:46:00,29.2,26.6,30.30,SSE,153,0.0,0.0,90,0.00,OVC,,0.00,WeatherDisplay:10.37,2013-01-12 06:46:00,
2013-01-11 22:51:00,29.2,26.6,30.30,SSE,153,0.0,0.0,90,0.00,OVC,,0.00,WeatherDisplay:10.37,2013-01-12 06:51:00,
2013-01-11 22:56:00,29.2,26.6,30.30,SSE,153,0.0,0.0,90,0.00,OVC,,0.00,WeatherDisplay:10.37,2013-01-12 06:56:00,
2013-01-11 23:01:00,29.1,26.5,30.30,SSE,153,0.0,0.0,90,0.00,OVC,,0.00,WeatherDisplay:10.37,2013-01-12 07:01:00,
2013-01-11 23:06:00,29.0,26.4,30.30,SSE,153,0.0,0.0,90,0.00,OVC,,0.00,WeatherDisplay:10.37,2013-01-12 07:06:00,
2013-01-11 23:11:00,28.9,26.3,30.30,SSE,153,0.0,0.0,90,0.00,OVC,,0.00,WeatherDisplay:10.37,2013-01-12 07:11:00,
2013-01-11 23:16:00,28.9,26.3,30.30,SSE,153,0.0,0.0,90,0.00,OVC,,0.00,WeatherDisplay:10.37,2013-01-12 07:16:00,
2013-01-11 23:21:00,28.8,26.2,30.30,SSE,153,0.0,0.0,90,0.00,OVC,,0.00,WeatherDisplay:10.37,2013-01-12 07:21:00,
2013-01-11 23:26:00,28.7,26.1,30.30,SSE,153,0.0,0.0,90,0.00,OVC,,0.00,WeatherDisplay:10.37,2013-01-12 07:26:00,
2013-01-11 23:31:00,28.6,26.0,30.30,SSE,153,1.1,0.0,90,0.00,OVC,,0.00,WeatherDisplay:10.37,2013-01-12 07:31:00,
2013-01-11 23:36:00,28.5,26.2,30.31,SSE,153,0.0,0.0,91,0.00,OVC,,0.00,WeatherDisplay:10.37,2013-01-12 07:36:00,
2013-01-11 23:41:00,28.5,26.2,30.30,SSE,153,0.0,0.0,91,0.00,OVC,,0.00,WeatherDisplay:10.37,2013-01-12 07:41:00,
2013-01-11 23:46:00,28.4,26.1,30.31,SSE,153,0.0,0.0,91,0.00,OVC,,0.00,WeatherDisplay:10.37,2013-01-12 07:46:00,
2013-01-11 23:51:00,28.4,26.1,30.30,SSE,153,0.0,0.0,91,0.00,OVC,,0.00,WeatherDisplay:10.37,2013-01-12 07:51:00,
2013-01-11 23:56:00,28.3,26.0,30.30,SSE,153,0.0,0.0,91,0.00,OVC,,0.00,WeatherDisplay:10.37,2013-01-12 07:56:00,